WetterOnline ( http://www.wetteronline.de )

Wetter aktuell Frankfurt am Main

Aktuelles Wetter: Offenbach (119m)

6-stündlich | Neueste Meldungen
Ortszeit Temperatur Wetter
Mi, 19.09. 8:00 15.8° C leicht bewölkt
Mi, 19.09. 2:00 18.4° C wolkenlos
Di, 18.09. 20:00 25.2° C wolkig
Di, 18.09. 14:00 29.4° C wolkenlos
Di, 18.09. 8:00 9.6° C wolkenlos
Di, 18.09. 2:00 11.8° C wolkig
Mo, 17.09. 20:00 20.4° C wolkig
Mo, 17.09. 14:00 26.4° C leicht bewölkt
Ortszeit Temperatur Wetter
Mi, 19.09. 12:30 26.7° C wolkenlos
Mi, 19.09. 12:20 26.7° C wolkenlos
Mi, 19.09. 12:10 26.9° C wolkenlos
Mi, 19.09. 12:00 26.4° C fast wolkenlos
Mi, 19.09. 11:50 26.4° C fast wolkenlos
Mi, 19.09. 11:40 26.7° C fast wolkenlos
Mi, 19.09. 11:30 25.7° C wolkenlos
Mi, 19.09. 11:00 24.3° C wolkenlos
Mi, 19.09. 10:30 23.8° C leicht bewölkt
Mi, 19.09. 10:00 23.2° C fast wolkenlos
Mi, 19.09. 9:30 21.3° C leicht bewölkt
Ortszeit Relative Feuchte Sichtweite
Mi, 19.09. 8:00 87% 22 km
Mi, 19.09. 2:00 79% 35 km
Di, 18.09. 20:00 49% 30 km
Di, 18.09. 14:00 33% 45 km
Di, 18.09. 8:00 93% 14 km
Di, 18.09. 2:00 86% 30 km
Mo, 17.09. 20:00 50% 40 km
Mo, 17.09. 14:00 31% 50 km
Ortszeit Relative Feuchte Sichtweite
Mi, 19.09. 12:30 42% 60 km
Mi, 19.09. 12:20 42% -
Mi, 19.09. 12:10 42% -
Mi, 19.09. 12:00 45% 65 km
Mi, 19.09. 11:50 45% -
Mi, 19.09. 11:40 45% -
Mi, 19.09. 11:30 47% 50 km
Mi, 19.09. 11:00 52% 40 km
Mi, 19.09. 10:30 53% 45 km
Mi, 19.09. 10:00 55% 40 km
Mi, 19.09. 9:30 63% 35 km
Ortszeit Niederschlagsmenge Niederschlagsart
Mi, 19.09. 8:00 0.0 l/m2 in 12 Std. -
Mi, 19.09. 2:00 0.0 l/m2 in 6 Std. -
Di, 18.09. 20:00 0.0 l/m2 in 12 Std. -
Di, 18.09. 14:00 0.0 l/m2 in 6 Std. -
Di, 18.09. 8:00 0.0 l/m2 in 12 Std. -
Di, 18.09. 2:00 0.0 l/m2 in 6 Std. -
Mo, 17.09. 20:00 0.0 l/m2 in 12 Std. -
Mo, 17.09. 14:00 0.0 l/m2 in 6 Std. -
Ortszeit Niederschlagsmenge Niederschlagsart
Mi, 19.09. 12:30 0.0 l/m2 in 1 Std. -
Mi, 19.09. 12:20 keine Meldung -
Mi, 19.09. 12:10 keine Meldung -
Mi, 19.09. 12:00 0.0 l/m2 in 1 Std. -
Mi, 19.09. 11:50 keine Meldung -
Mi, 19.09. 11:40 keine Meldung -
Mi, 19.09. 11:30 0.0 l/m2 in 1 Std. -
Mi, 19.09. 11:00 0.0 l/m2 in 1 Std. -
Mi, 19.09. 10:30 0.0 l/m2 in 1 Std. -
Mi, 19.09. 10:00 0.0 l/m2 in 1 Std. -
Mi, 19.09. 9:30 0.0 l/m2 in 1 Std. -
Ortszeit Stärke Spitze Richtung
km/h Bft. km/h Grad Sektor
Mi, 19.09. 8:00 4 1 11 130° SO
Mi, 19.09. 2:00 0 0 11 - -
Di, 18.09. 20:00 4 1 32 190° S
Di, 18.09. 14:00 13 3 28 230° SW
Di, 18.09. 8:00 4 1 7 80° O
Di, 18.09. 2:00 0 0 7 - -
Mo, 17.09. 20:00 4 1 25 90° O
Mo, 17.09. 14:00 9 2 19 160° S
Ortszeit Stärke Spitze Richtung
km/h Bft. km/h Grad Sektor
Mi, 19.09. 12:30 11 2 18 210° SW
Mi, 19.09. 12:20 11 2 - 210° SW
Mi, 19.09. 12:10 9 2 - 220° SW
Mi, 19.09. 12:00 9 2 19 230° SW
Mi, 19.09. 11:50 9 2 - 230° SW
Mi, 19.09. 11:40 9 2 - 230° SW
Mi, 19.09. 11:30 9 2 17 200° S
Mi, 19.09. 11:00 7 2 15 220° SW
Mi, 19.09. 10:30 7 2 14 210° SW
Mi, 19.09. 10:00 7 2 11 220° SW
Mi, 19.09. 9:30 4 1 7 160° S
Ortszeit Untergrenze Bedeckung Gattung
total tief tief mittel hoch
Mi, 19.09. 8:00 8100 m 3/8 0/8 - - -
Mi, 19.09. 2:00 - 0/8 0/8 - - -
Di, 18.09. 20:00 2400 m 5/8 5/8 - - -
Di, 18.09. 14:00 - 0/8 0/8 - - -
Di, 18.09. 8:00 - 0/8 0/8 - - -
Di, 18.09. 2:00 2400 m 7/8 1/8 - - -
Mo, 17.09. 20:00 10500 m 8/8 0/8 - - -
Mo, 17.09. 14:00 12000 m 8/8 0/8 - - -
Ortszeit Bedeckungsgrad in Achtel und Wolkenuntergrenze
Mi, 19.09. 12:30 keine Wolken
Mi, 19.09. 12:20 keine Wolken
Mi, 19.09. 12:10 keine Wolken
Mi, 19.09. 12:00 1(3000m)
Mi, 19.09. 11:50 1(3000m)
Mi, 19.09. 11:40 1(3000m)
Mi, 19.09. 11:30 keine Wolken
Mi, 19.09. 11:00 keine Wolken
Mi, 19.09. 10:30 4(9000m)
Mi, 19.09. 10:00 2(9000m)
Mi, 19.09. 9:30 4(8400m) 6(9000m)
Ortszeit Luftdruck NN (hPa) Tendenz (hPa in 3 Std.)
Mi, 19.09. 8:00 1019 + 0,9
Mi, 19.09. 2:00 1017 + 0,9
Di, 18.09. 20:00 1014 + 0,4
Di, 18.09. 14:00 1015 - 1,4
Di, 18.09. 8:00 1017 + 0,3
Di, 18.09. 2:00 1017 - 0,5
Mo, 17.09. 20:00 1017 - 0,7
Mo, 17.09. 14:00 1019 - 1,7
Ortszeit Luftdruck NN (hPa) Tendenz (hPa in 3 Std.)
Mi, 19.09. 12:30 1019 + 0,4
Mi, 19.09. 12:20 1019 keine Meldung
Mi, 19.09. 12:10 1019 keine Meldung
Mi, 19.09. 12:00 1019 + 0,3
Mi, 19.09. 11:50 1019 keine Meldung
Mi, 19.09. 11:40 1019 keine Meldung
Mi, 19.09. 11:30 1019 + 0,4
Mi, 19.09. 11:00 1019 + 0,7
Mi, 19.09. 10:30 1019 + 0,9
Mi, 19.09. 10:00 1019 + 0,9
Mi, 19.09. 9:30 1019 + 1,0
Ortszeit Schneehöhe (cm)
Mi, 19.09. 8:00 -
Mi, 19.09. 2:00 -
Di, 18.09. 20:00 -
Di, 18.09. 14:00 -
Di, 18.09. 8:00 -
Di, 18.09. 2:00 -
Mo, 17.09. 20:00 -
Mo, 17.09. 14:00 -
Ortszeit Schneehöhe (cm)
Mi, 19.09. 12:30 -
Mi, 19.09. 12:20 -
Mi, 19.09. 12:10 -
Mi, 19.09. 12:00 -
Mi, 19.09. 11:50 -
Mi, 19.09. 11:40 -
Mi, 19.09. 11:30 -
Mi, 19.09. 11:00 -
Mi, 19.09. 10:30 -
Mi, 19.09. 10:00 -
Mi, 19.09. 9:30 -
Link zu dieser Seite / Seite empfehlen

Das Wetter in ...